createdAt,value
2017-07-02T00:00:27.129Z,4.77
2017-07-02T00:02:53.791Z,6.00
2017-07-02T00:05:20.491Z,14.50
2017-07-02T00:07:47.135Z,5.83
2017-07-02T00:10:13.791Z,5.77
2017-07-02T00:12:40.484Z,5.27
2017-07-02T00:15:07.119Z,4.53
2017-07-02T00:17:33.784Z,5.10
2017-07-02T00:20:00.452Z,4.50
2017-07-02T00:22:27.133Z,6.10
2017-07-02T00:24:53.798Z,4.83
2017-07-02T00:27:20.452Z,4.43
2017-07-02T00:29:47.136Z,5.27
2017-07-02T00:32:13.792Z,5.27
2017-07-02T00:34:40.453Z,4.80
2017-07-02T00:37:07.123Z,4.93
2017-07-02T00:39:33.790Z,4.03
2017-07-02T00:42:00.451Z,4.67
2017-07-02T00:44:27.130Z,5.30
2017-07-02T00:46:53.767Z,5.10
2017-07-02T00:49:20.409Z,4.60
2017-07-02T00:51:47.078Z,4.50
2017-07-02T00:54:13.739Z,4.60
2017-07-02T00:56:40.381Z,5.17
2017-07-02T00:59:07.232Z,5.20
2017-07-02T01:01:33.882Z,5.67
2017-07-02T01:04:00.520Z,5.23
2017-07-02T01:06:27.219Z,5.60
2017-07-02T01:08:53.863Z,5.33
2017-07-02T01:11:20.519Z,5.20
2017-07-02T01:13:47.234Z,5.40
2017-07-02T01:16:13.889Z,5.10
2017-07-02T01:18:40.524Z,4.83
2017-07-02T01:21:07.192Z,6.40
2017-07-02T01:23:33.831Z,5.13
2017-07-02T01:26:00.474Z,5.80
2017-07-02T01:28:27.205Z,6.20
2017-07-02T01:30:53.866Z,4.77
2017-07-02T01:33:20.515Z,5.10
2017-07-02T01:35:47.218Z,4.97
2017-07-02T01:38:13.875Z,6.00
2017-07-02T01:40:40.512Z,5.60
2017-07-02T01:43:07.189Z,4.87
2017-07-02T01:45:33.850Z,5.57
2017-07-02T01:48:00.505Z,5.77
2017-07-02T01:50:27.181Z,5.62
2017-07-02T01:52:53.843Z,5.60
2017-07-02T01:55:20.503Z,5.30
2017-07-02T01:57:47.187Z,5.90
2017-07-02T02:00:13.840Z,5.70
2017-07-02T02:02:46.504Z,7.07
2017-07-02T02:05:13.182Z,6.20
2017-07-02T02:07:39.830Z,6.27
2017-07-02T02:10:06.494Z,6.50
2017-07-02T02:12:33.150Z,6.23
2017-07-02T02:14:59.803Z,6.20
2017-07-02T02:17:26.459Z,5.33
2017-07-02T02:19:53.144Z,6.03
2017-07-02T02:22:19.804Z,6.77
2017-07-02T02:24:46.500Z,7.43
2017-07-02T02:27:13.202Z,6.20
2017-07-02T02:29:39.906Z,7.03
2017-07-02T02:32:06.553Z,6.37
2017-07-02T02:34:33.226Z,6.87
2017-07-02T02:36:59.914Z,7.13
2017-07-02T02:39:26.563Z,7.83
2017-07-02T02:41:53.278Z,6.00
2017-07-02T02:44:19.938Z,7.67
2017-07-02T02:46:46.594Z,7.13
2017-07-02T02:49:13.338Z,7.73
2017-07-02T02:51:39.990Z,8.10
2017-07-02T02:54:06.632Z,7.03
2017-07-02T02:56:33.309Z,8.50
2017-07-02T02:58:59.975Z,8.37
2017-07-02T03:01:26.630Z,8.40
2017-07-02T03:03:53.316Z,8.70
2017-07-02T03:06:19.963Z,5.50
2017-07-02T03:08:46.622Z,8.97
2017-07-02T03:11:13.291Z,6.10
2017-07-02T03:13:39.947Z,8.60
2017-07-02T03:16:06.592Z,8.77
2017-07-02T03:18:33.267Z,9.30
2017-07-02T03:20:59.918Z,9.37
2017-07-02T03:23:26.559Z,9.20
2017-07-02T03:25:53.230Z,9.20
2017-07-02T03:28:19.897Z,9.60
2017-07-02T03:30:46.554Z,9.33
2017-07-02T03:33:13.212Z,9.70
2017-07-02T03:35:39.867Z,9.10
2017-07-02T03:38:06.507Z,8.90
2017-07-02T03:40:33.166Z,9.73
2017-07-02T03:42:59.822Z,8.80
2017-07-02T03:45:26.482Z,9.30
2017-07-02T03:47:53.157Z,7.87
2017-07-02T03:50:19.806Z,8.70
2017-07-02T03:52:46.467Z,8.73
2017-07-02T03:55:13.138Z,8.30
2017-07-02T03:57:39.789Z,7.80
2017-07-02T04:00:06.435Z,8.00
2017-07-02T04:02:33.099Z,8.70
2017-07-02T04:04:59.794Z,8.33
2017-07-02T04:07:26.440Z,9.10
2017-07-02T04:09:53.109Z,7.83
2017-07-02T04:12:19.770Z,8.83
2017-07-02T04:14:46.420Z,9.13
2017-07-02T04:17:13.112Z,7.67
2017-07-02T04:19:39.774Z,8.27
2017-07-02T04:22:06.426Z,7.80
2017-07-02T04:24:33.102Z,8.70
2017-07-02T04:26:59.780Z,6.73
2017-07-02T04:29:26.420Z,7.27
2017-07-02T04:31:53.079Z,7.47
2017-07-02T04:34:19.748Z,7.10
2017-07-02T04:36:46.401Z,6.50
2017-07-02T04:39:13.079Z,7.67
2017-07-02T04:41:39.719Z,7.03
2017-07-02T04:44:06.360Z,6.43
2017-07-02T04:46:33.024Z,6.70
2017-07-02T04:48:59.673Z,6.60
2017-07-02T04:51:26.330Z,7.33
2017-07-02T04:53:53.004Z,7.60
2017-07-02T04:56:19.638Z,6.47
2017-07-02T04:58:46.290Z,6.47
2017-07-02T05:01:12.978Z,6.47
2017-07-02T05:03:39.620Z,7.70
2017-07-02T05:06:06.265Z,7.30
2017-07-02T05:08:32.928Z,6.80
2017-07-02T05:10:59.679Z,6.23
2017-07-02T05:13:26.370Z,6.80
2017-07-02T05:15:53.064Z,6.30
2017-07-02T05:18:19.733Z,6.40
2017-07-02T05:20:46.375Z,5.50
2017-07-02T05:23:13.057Z,6.37
2017-07-02T05:25:39.727Z,6.37
2017-07-02T05:28:06.384Z,6.00
2017-07-02T05:30:33.042Z,6.40
2017-07-02T05:32:59.699Z,5.87
2017-07-02T05:35:26.347Z,4.97
2017-07-02T05:37:53.023Z,5.70
2017-07-02T05:40:19.690Z,7.90
2017-07-02T05:42:46.342Z,4.60
2017-07-02T05:45:13.053Z,6.17
2017-07-02T05:47:39.719Z,5.90
2017-07-02T05:50:06.376Z,6.93
2017-07-02T05:52:33.050Z,7.33
2017-07-02T05:54:59.700Z,6.27
2017-07-02T05:57:26.331Z,5.50
2017-07-02T05:59:53.010Z,7.13
2017-07-02T06:02:19.673Z,5.90
2017-07-02T06:04:46.316Z,6.53
2017-07-02T06:07:12.990Z,6.97
2017-07-02T06:09:39.655Z,5.90
2017-07-02T06:12:06.306Z,5.40
2017-07-02T06:14:33.015Z,6.93
2017-07-02T06:16:59.685Z,6.47
2017-07-02T06:19:26.336Z,6.90
2017-07-02T06:21:52.998Z,6.20
2017-07-02T06:24:19.639Z,6.10
2017-07-02T06:26:46.287Z,6.10
2017-07-02T06:29:12.978Z,6.30
2017-07-02T06:31:39.638Z,7.77
2017-07-02T06:34:06.322Z,6.27
2017-07-02T06:36:33.009Z,8.07
2017-07-02T06:38:59.663Z,7.67
2017-07-02T06:41:26.361Z,7.97
2017-07-02T06:43:53.078Z,7.00
2017-07-02T06:46:19.724Z,7.57
2017-07-02T06:48:46.390Z,8.00
2017-07-02T06:51:13.051Z,7.10
2017-07-02T06:53:39.688Z,7.57
2017-07-02T06:56:06.319Z,7.97
2017-07-02T06:58:32.991Z,8.20
2017-07-02T07:00:59.650Z,8.13
2017-07-02T07:03:26.292Z,7.37
2017-07-02T07:05:52.987Z,7.57
2017-07-02T07:08:19.646Z,6.57
2017-07-02T07:10:46.298Z,7.33
2017-07-02T07:13:12.996Z,7.63
2017-07-02T07:15:39.667Z,7.27
2017-07-02T07:18:06.322Z,7.53
2017-07-02T07:20:33.000Z,8.60
2017-07-02T07:22:59.648Z,8.17
2017-07-02T07:25:26.306Z,7.97
2017-07-02T07:27:52.985Z,8.27
2017-07-02T07:30:19.631Z,8.10
2017-07-02T07:32:46.292Z,7.53
2017-07-02T07:35:13.007Z,8.87
2017-07-02T07:37:39.669Z,7.87
2017-07-02T07:40:06.314Z,7.70
2017-07-02T07:42:33.010Z,8.37
2017-07-02T07:44:59.678Z,7.77
2017-07-02T07:47:26.360Z,8.73
2017-07-02T07:49:53.026Z,8.57
2017-07-02T07:52:19.705Z,8.60
2017-07-02T07:54:46.397Z,9.20
2017-07-02T07:57:13.044Z,9.50
2017-07-02T07:59:39.748Z,9.00
2017-07-02T08:02:06.398Z,9.20
2017-07-02T08:04:33.040Z,9.57
2017-07-02T08:06:59.732Z,8.37
2017-07-02T08:09:26.378Z,9.03
2017-07-02T08:11:53.034Z,7.97
2017-07-02T08:14:19.707Z,9.30
2017-07-02T08:16:46.368Z,8.37
2017-07-02T08:19:13.028Z,10.30
2017-07-02T08:21:39.704Z,9.37
2017-07-02T08:24:06.371Z,8.50
2017-07-02T08:26:33.023Z,9.77
2017-07-02T08:28:59.721Z,8.63
2017-07-02T08:31:26.382Z,6.80
2017-07-02T08:33:54.072Z,9.20
2017-07-02T08:36:20.723Z,9.27
2017-07-02T08:38:47.382Z,9.50
2017-07-02T08:41:14.041Z,9.67
2017-07-02T08:43:40.702Z,9.03
2017-07-02T08:46:07.355Z,8.50
2017-07-02T08:48:34.054Z,9.57
2017-07-02T08:51:00.730Z,10.00
2017-07-02T08:53:27.393Z,9.10
2017-07-02T08:55:54.084Z,10.80
2017-07-02T08:58:20.853Z,10.23
2017-07-02T09:00:47.566Z,10.90
2017-07-02T09:03:14.233Z,10.70
2017-07-02T09:05:41.023Z,10.70
2017-07-02T09:08:07.734Z,10.90
2017-07-02T09:10:34.430Z,9.93
2017-07-02T09:13:01.115Z,10.20
2017-07-02T09:15:27.839Z,10.00
2017-07-02T09:17:54.564Z,10.00
2017-07-02T09:20:21.216Z,10.43
2017-07-02T09:22:47.912Z,11.20
2017-07-02T09:25:14.699Z,10.97
2017-07-02T09:27:41.415Z,11.17
2017-07-02T09:30:08.084Z,11.40
2017-07-02T09:32:34.754Z,10.67
2017-07-02T09:35:01.518Z,10.90
2017-07-02T09:37:28.760Z,12.23
2017-07-02T09:39:55.457Z,11.80
2017-07-02T09:42:22.171Z,11.83
2017-07-02T09:44:48.903Z,12.87
2017-07-02T09:47:15.580Z,13.50
2017-07-02T09:49:42.252Z,13.90
2017-07-02T09:52:08.904Z,15.67
2017-07-02T09:54:35.669Z,16.20
2017-07-02T09:57:02.370Z,17.13
2017-07-02T09:59:29.098Z,18.10
2017-07-02T10:01:55.821Z,19.50
2017-07-02T10:04:22.584Z,17.90
2017-07-02T10:06:49.311Z,21.13
2017-07-02T10:09:16.055Z,21.70
2017-07-02T10:11:42.781Z,22.60
2017-07-02T10:14:09.495Z,21.40
2017-07-02T10:16:36.159Z,22.57
2017-07-02T10:19:02.827Z,20.07
2017-07-02T10:21:29.492Z,21.87
2017-07-02T10:23:56.184Z,24.05
2017-07-02T10:26:22.871Z,21.80
2017-07-02T10:28:49.540Z,21.07
2017-07-02T10:31:16.261Z,20.37
2017-07-02T10:33:42.964Z,20.40
2017-07-02T10:36:09.645Z,19.10
2017-07-02T10:38:36.328Z,15.17
2017-07-02T10:41:03.022Z,15.13
2017-07-02T10:43:29.688Z,14.80
2017-07-02T10:45:56.352Z,14.80
2017-07-02T10:48:23.036Z,14.87
2017-07-02T10:50:49.696Z,14.53
2017-07-02T10:53:16.362Z,15.17
2017-07-02T10:55:43.064Z,14.83
2017-07-02T10:58:09.750Z,13.57
2017-07-02T11:00:36.486Z,16.30
2017-07-02T11:03:03.159Z,12.20
2017-07-02T11:05:29.847Z,11.43
2017-07-02T11:07:56.527Z,13.10
2017-07-02T11:10:23.209Z,11.57
2017-07-02T11:12:49.877Z,15.10
2017-07-02T11:15:16.557Z,10.53
2017-07-02T11:17:43.241Z,11.10
2017-07-02T11:20:09.921Z,10.50
2017-07-02T11:22:36.608Z,10.50
2017-07-02T11:25:03.274Z,11.03
2017-07-02T11:27:29.962Z,11.90
2017-07-02T11:29:56.644Z,11.20
2017-07-02T11:32:23.295Z,13.10
2017-07-02T11:34:49.965Z,10.00
2017-07-02T11:37:16.615Z,10.93
2017-07-02T11:39:43.330Z,10.40
2017-07-02T11:42:10.019Z,13.20
2017-07-02T11:44:36.668Z,11.90
2017-07-02T11:47:03.347Z,7.07
2017-07-02T11:49:30.051Z,8.13
2017-07-02T11:51:56.730Z,11.27
2017-07-02T11:54:23.395Z,9.07
2017-07-02T11:56:50.068Z,6.23
2017-07-02T11:59:16.775Z,6.30
2017-07-02T12:01:59.883Z,7.00
2017-07-02T12:04:27.364Z,8.50
2017-07-02T12:06:54.538Z,6.23
2017-07-02T12:09:41.703Z,7.27
2017-07-02T12:12:21.274Z,7.63
2017-07-02T12:17:31.949Z,8.90
2017-07-02T12:20:05.346Z,10.97
2017-07-02T12:22:32.049Z,11.63
2017-07-02T12:24:58.710Z,11.73
2017-07-02T12:27:25.405Z,11.70
2017-07-02T12:29:52.095Z,10.20
2017-07-02T12:32:18.779Z,11.87
2017-07-02T12:34:45.454Z,11.97
2017-07-02T12:37:12.152Z,12.90
2017-07-02T12:39:38.799Z,25.70
2017-07-02T12:42:05.472Z,10.30
2017-07-02T12:44:32.150Z,10.60
2017-07-02T12:46:58.810Z,10.33
2017-07-02T12:49:25.486Z,9.27
2017-07-02T12:51:52.168Z,9.47
2017-07-02T12:54:18.877Z,11.37
2017-07-02T12:56:45.535Z,11.27
2017-07-02T12:59:12.180Z,11.17
2017-07-02T13:01:38.892Z,13.10
2017-07-02T13:04:05.544Z,10.20
2017-07-02T13:06:32.215Z,10.37
2017-07-02T13:08:58.920Z,10.13
2017-07-02T13:11:25.595Z,9.20
2017-07-02T13:13:52.240Z,9.00
2017-07-02T13:16:18.936Z,8.10
2017-07-02T13:18:45.614Z,9.10
2017-07-02T13:21:12.291Z,8.90
2017-07-02T13:23:38.951Z,10.60
2017-07-02T13:26:05.647Z,9.30
2017-07-02T13:28:32.322Z,9.40
2017-07-02T13:30:58.968Z,10.20
2017-07-02T13:33:25.682Z,10.57
2017-07-02T13:35:52.331Z,10.53
2017-07-02T13:38:18.996Z,9.00
2017-07-02T13:40:45.667Z,8.97
2017-07-02T13:43:12.334Z,7.90
2017-07-02T13:45:38.985Z,8.87
2017-07-02T13:48:05.634Z,6.97
2017-07-02T13:50:32.318Z,7.03
2017-07-02T13:52:59.011Z,7.63
2017-07-02T13:55:25.671Z,7.43
2017-07-02T13:57:52.308Z,7.60
2017-07-02T14:00:18.964Z,7.40
2017-07-02T14:02:45.626Z,7.80
2017-07-02T14:05:12.306Z,7.07
2017-07-02T14:07:39.025Z,7.87
2017-07-02T14:10:05.670Z,7.40
2017-07-02T14:12:32.323Z,7.60
2017-07-02T14:14:59.102Z,8.30
2017-07-02T14:17:25.744Z,8.33
2017-07-02T14:19:52.404Z,8.60
2017-07-02T14:22:19.060Z,8.90
2017-07-02T14:24:45.692Z,9.47
2017-07-02T14:27:12.390Z,8.83
2017-07-02T14:29:39.048Z,8.43
2017-07-02T14:32:05.731Z,8.30
2017-07-02T14:34:32.387Z,8.27
2017-07-02T14:36:59.047Z,7.27
2017-07-02T14:39:25.760Z,6.97
2017-07-02T14:41:52.418Z,6.13
2017-07-02T14:44:19.123Z,6.17
2017-07-02T14:46:45.783Z,8.70
2017-07-02T14:49:12.467Z,8.83
2017-07-02T14:51:39.117Z,9.87
2017-07-02T14:54:05.794Z,9.10
2017-07-02T14:56:32.455Z,9.20
2017-07-02T14:58:59.130Z,9.70
2017-07-02T15:01:25.800Z,8.67
2017-07-02T15:03:52.483Z,7.60
2017-07-02T15:06:19.151Z,7.10
2017-07-02T15:08:45.816Z,6.63
2017-07-02T15:11:12.476Z,5.70
2017-07-02T15:13:39.108Z,6.17
2017-07-02T15:16:05.762Z,4.57
2017-07-02T15:18:32.443Z,5.03
2017-07-02T15:20:59.101Z,4.77
2017-07-02T15:23:25.739Z,4.37
2017-07-02T15:25:52.426Z,5.20
2017-07-02T15:28:19.081Z,5.43
2017-07-02T15:30:45.747Z,5.17
2017-07-02T15:33:12.487Z,5.60
2017-07-02T15:35:39.164Z,5.57
2017-07-02T15:38:05.816Z,4.70
2017-07-02T15:40:32.473Z,5.83
2017-07-02T15:42:59.135Z,5.20
2017-07-02T15:45:25.803Z,5.33
2017-07-02T15:47:52.487Z,4.30
2017-07-02T15:50:19.124Z,4.47
2017-07-02T15:52:45.790Z,5.27
2017-07-02T15:55:12.482Z,4.80
2017-07-02T15:57:39.146Z,4.77
2017-07-02T16:00:05.806Z,4.93
2017-07-02T16:02:32.490Z,4.90
2017-07-02T16:04:59.179Z,4.53
2017-07-02T16:07:25.843Z,4.90
2017-07-02T16:09:52.536Z,4.57
2017-07-02T16:12:19.220Z,4.30
2017-07-02T16:14:45.918Z,4.30
2017-07-02T16:17:12.574Z,4.50
2017-07-02T16:19:39.260Z,3.60
2017-07-02T16:22:05.916Z,3.60
2017-07-02T16:24:32.557Z,4.03
2017-07-02T16:26:59.213Z,3.27
2017-07-02T16:29:25.860Z,4.27
2017-07-02T16:31:52.518Z,3.73
2017-07-02T16:34:19.219Z,4.87
2017-07-02T16:36:45.939Z,2.80
2017-07-02T16:39:12.579Z,4.33
2017-07-02T16:41:39.274Z,3.43
2017-07-02T16:44:05.940Z,3.53
2017-07-02T16:46:32.594Z,3.10
2017-07-02T16:48:59.290Z,3.60
2017-07-02T16:51:26.004Z,3.70
2017-07-02T16:53:52.678Z,3.30
2017-07-02T16:56:19.383Z,3.40
2017-07-02T16:58:46.066Z,3.47
2017-07-02T17:01:12.703Z,3.07
2017-07-02T17:03:39.395Z,2.97
2017-07-02T17:06:06.062Z,3.17
2017-07-02T17:08:32.727Z,2.70
2017-07-02T17:10:59.403Z,2.73
2017-07-02T17:13:26.100Z,2.60
2017-07-02T17:15:53.307Z,2.53
2017-07-02T17:18:20.036Z,2.83
2017-07-02T17:20:46.689Z,2.57
2017-07-02T17:23:13.351Z,3.40
2017-07-02T17:25:40.071Z,3.10
2017-07-02T17:28:06.720Z,2.40
2017-07-02T17:30:33.363Z,3.10
2017-07-02T17:33:00.088Z,2.53
2017-07-02T17:35:26.768Z,2.97
2017-07-02T17:37:53.472Z,2.80
2017-07-02T17:40:20.185Z,2.73
2017-07-02T17:42:46.836Z,2.50
2017-07-02T17:45:13.505Z,2.90
2017-07-02T17:47:40.162Z,2.53
2017-07-02T17:50:06.803Z,2.50
2017-07-02T17:52:33.496Z,2.77
2017-07-02T17:55:00.151Z,3.30
2017-07-02T17:57:26.808Z,3.03
2017-07-02T17:59:53.463Z,3.10
2017-07-02T18:02:20.091Z,2.77
2017-07-02T18:04:46.726Z,3.00
2017-07-02T18:07:13.436Z,2.70
2017-07-02T18:09:40.082Z,3.03
2017-07-02T18:12:06.758Z,2.60
2017-07-02T18:14:33.438Z,2.90
2017-07-02T18:17:00.093Z,3.50
2017-07-02T18:19:26.740Z,2.93
2017-07-02T18:21:53.438Z,2.70
2017-07-02T18:24:20.100Z,2.60
2017-07-02T18:26:46.748Z,2.43
2017-07-02T18:29:13.430Z,2.40
2017-07-02T18:31:40.072Z,3.00
2017-07-02T18:34:06.740Z,2.73
2017-07-02T18:36:33.400Z,3.30
2017-07-02T18:39:00.051Z,3.37
2017-07-02T18:41:26.706Z,3.27
2017-07-02T18:43:53.396Z,2.37
2017-07-02T18:46:20.074Z,2.90
2017-07-02T18:48:46.740Z,2.50
2017-07-02T18:51:13.419Z,2.40
2017-07-02T18:53:40.101Z,2.10
2017-07-02T18:56:06.802Z,2.40
2017-07-02T18:58:33.468Z,1.80
2017-07-02T19:01:00.176Z,2.50
2017-07-02T19:03:26.847Z,2.40
2017-07-02T19:05:53.551Z,2.20
2017-07-02T19:08:20.237Z,2.57
2017-07-02T19:10:46.891Z,2.67
2017-07-02T19:13:13.578Z,3.60
2017-07-02T19:15:40.219Z,2.90
2017-07-02T19:18:06.880Z,2.43
2017-07-02T19:20:33.554Z,2.90
2017-07-02T19:23:00.274Z,2.70
2017-07-02T19:25:27.012Z,4.23
2017-07-02T19:27:53.659Z,2.97
2017-07-02T19:30:20.340Z,5.37
2017-07-02T19:32:47.038Z,2.77
2017-07-02T19:35:13.706Z,2.70
2017-07-02T19:37:40.363Z,3.70
2017-07-02T19:40:07.054Z,2.43
2017-07-02T19:42:33.726Z,2.30
2017-07-02T19:45:00.381Z,2.93
2017-07-02T19:47:27.050Z,2.70
2017-07-02T19:49:53.735Z,2.80
2017-07-02T19:52:20.407Z,2.63
2017-07-02T19:54:47.145Z,2.10
2017-07-02T19:57:13.846Z,2.93
2017-07-02T19:59:40.523Z,2.20
2017-07-02T20:02:07.159Z,3.03
2017-07-02T20:04:33.822Z,1.93
2017-07-02T20:07:00.523Z,2.33
2017-07-02T20:09:27.180Z,2.40
2017-07-02T20:11:53.859Z,2.60
2017-07-02T20:14:20.497Z,3.13
2017-07-02T20:16:47.136Z,3.13
2017-07-02T20:19:13.794Z,2.47
2017-07-02T20:21:41.135Z,3.07
2017-07-02T20:24:07.797Z,2.50
2017-07-02T20:26:34.440Z,4.10
2017-07-02T20:29:01.126Z,3.30
2017-07-02T20:31:27.801Z,2.63
2017-07-02T20:33:54.468Z,3.30
2017-07-02T20:36:21.174Z,4.47
2017-07-02T20:38:48.006Z,2.50
2017-07-02T20:41:14.820Z,2.83
2017-07-02T20:43:41.513Z,2.60
2017-07-02T20:46:08.250Z,2.87
2017-07-02T20:48:34.966Z,1.87
2017-07-02T20:51:01.684Z,2.70
2017-07-02T20:53:28.395Z,3.00
2017-07-02T20:55:55.064Z,2.50
2017-07-02T20:58:21.764Z,3.00
2017-07-02T21:00:48.442Z,3.20
2017-07-02T21:03:15.100Z,2.73
2017-07-02T21:05:41.762Z,3.00
2017-07-02T21:08:08.500Z,3.50
2017-07-02T21:10:35.251Z,3.40
2017-07-02T21:13:01.932Z,2.73
2017-07-02T21:15:28.631Z,2.90
2017-07-02T21:17:55.307Z,3.13
2017-07-02T21:20:21.956Z,4.50
2017-07-02T21:22:48.636Z,3.40
2017-07-02T21:25:15.286Z,3.17
2017-07-02T21:27:41.956Z,3.00
2017-07-02T21:30:08.647Z,4.13
2017-07-02T21:32:35.327Z,3.40
2017-07-02T21:35:02.009Z,3.83
2017-07-02T21:37:28.661Z,3.50
2017-07-02T21:39:55.403Z,3.80
2017-07-02T21:42:22.083Z,3.90
2017-07-02T21:44:49.338Z,3.10
2017-07-02T21:47:16.007Z,3.47
2017-07-02T21:49:42.655Z,3.23
2017-07-02T21:52:09.334Z,3.10
2017-07-02T21:54:35.989Z,3.40
2017-07-02T21:57:02.640Z,3.07
2017-07-02T21:59:29.336Z,3.57
2017-07-02T22:01:56.029Z,3.70
2017-07-02T22:04:22.667Z,3.80
2017-07-02T22:06:49.300Z,3.30
2017-07-02T22:09:15.998Z,4.00
2017-07-02T22:11:42.660Z,4.00
2017-07-02T22:14:09.329Z,4.50
2017-07-02T22:16:36.012Z,4.23
2017-07-02T22:19:02.680Z,3.17
2017-07-02T22:21:29.325Z,3.17
2017-07-02T22:23:56.034Z,4.53
2017-07-02T22:26:22.684Z,3.73
2017-07-02T22:28:49.337Z,4.33
2017-07-02T22:31:16.012Z,4.73
2017-07-02T22:33:42.708Z,3.83
2017-07-02T22:36:09.359Z,4.30
2017-07-02T22:38:36.007Z,5.10
2017-07-02T22:41:02.645Z,4.20
2017-07-02T22:43:29.307Z,4.70
2017-07-02T22:45:55.998Z,4.70
2017-07-02T22:48:22.662Z,5.73
2017-07-02T22:50:49.323Z,4.07
2017-07-02T22:53:15.992Z,4.60
2017-07-02T22:55:42.674Z,4.50
2017-07-02T22:58:09.331Z,5.50
2017-07-02T23:00:36.015Z,4.73
2017-07-02T23:03:02.698Z,4.80
2017-07-02T23:05:29.381Z,3.90
2017-07-02T23:07:56.020Z,4.23
2017-07-02T23:10:22.682Z,5.00
2017-07-02T23:12:49.396Z,4.90
2017-07-02T23:15:16.050Z,4.20
2017-07-02T23:17:42.741Z,4.23
2017-07-02T23:20:09.432Z,5.07
2017-07-02T23:22:36.071Z,5.17
2017-07-02T23:25:02.738Z,5.50
2017-07-02T23:27:29.431Z,4.50
2017-07-02T23:29:56.097Z,4.77
2017-07-02T23:32:22.735Z,5.83
2017-07-02T23:34:49.440Z,7.30
2017-07-02T23:37:16.096Z,5.33
2017-07-02T23:39:42.767Z,5.20
2017-07-02T23:42:09.451Z,4.53
2017-07-02T23:44:36.126Z,5.33
2017-07-02T23:47:02.780Z,4.70
2017-07-02T23:49:29.450Z,5.33
2017-07-02T23:51:56.100Z,7.60
2017-07-02T23:54:22.745Z,5.80
2017-07-02T23:56:49.419Z,5.90
2017-07-02T23:59:16.086Z,5.60
